Lower Edmonton, United Kingdom
Current Conditions -  °F | °C
As of 3:20 PM on Saturday 25 Oct 2014 (Local Time) from EGLC Reporting Station
Scattered Clouds Scattered Clouds  
Wind Chill: 61°   Ceiling: Unl
Heat Index: 61°   Visibility: 6mi
Dew Point: 45°   Wind: 13mph
Humidity: 55%   Direction: 230°SW
Pressure: 30.06"   Gusts: NA
Location:  51.63°N, 0.04°W
Report Text: EGLC 251420Z AUTO 23011KT 9999 SCT040/// 16/07 Q1018
Loading
Personal Weather Stations






























Interactive Weather Map
Tropical Storm Tracking
New forecast layout! Learn more

10-Day Weather Forecast

Advertisements
Track Severe Weather on mobile